createdAt,value
2018-12-07T00:11:44.476Z,9.50
2018-12-07T00:25:00.608Z,9.50
2018-12-07T00:36:12.687Z,9.63
2018-12-07T00:38:41.297Z,9.76
2018-12-07T00:41:09.960Z,9.67
2018-12-07T00:43:38.849Z,9.68
2018-12-07T00:46:07.860Z,9.72
2018-12-07T00:48:36.930Z,9.75
2018-12-07T00:51:05.835Z,9.74
2018-12-07T00:53:34.499Z,9.75
2018-12-07T00:56:03.100Z,9.84
2018-12-07T00:58:32.101Z,9.84
2018-12-07T01:01:00.689Z,9.91
2018-12-07T01:03:29.963Z,9.97
2018-12-07T03:04:44.325Z,10.26
2018-12-07T03:16:19.649Z,10.21
2018-12-07T03:22:03.827Z,10.21
2018-12-07T03:24:53.546Z,10.22
2018-12-07T03:30:13.030Z,10.21
2018-12-07T03:33:55.961Z,10.33
2018-12-07T03:37:04.669Z,10.29
2018-12-07T03:39:52.951Z,10.31
2018-12-07T03:52:06.314Z,10.23
2018-12-07T03:54:35.010Z,10.20
2018-12-07T03:59:31.476Z,10.26
2018-12-07T04:02:00.222Z,10.25
2018-12-07T04:04:28.690Z,10.21
2018-12-07T04:06:57.391Z,10.21
2018-12-07T04:09:27.353Z,10.24
2018-12-07T04:11:55.769Z,10.29
2018-12-07T04:14:24.575Z,10.34
2018-12-07T04:16:53.337Z,10.36
2018-12-07T04:19:21.867Z,10.44
2018-12-07T04:21:50.211Z,10.44
2018-12-07T04:24:19.205Z,10.51
2018-12-07T04:26:47.892Z,10.43
2018-12-07T04:29:16.564Z,10.51
2018-12-07T04:31:44.950Z,10.65
2018-12-07T04:34:13.687Z,10.60
2018-12-07T04:36:42.203Z,10.53
2018-12-07T04:39:10.746Z,10.58
2018-12-07T04:41:39.724Z,10.66
2018-12-07T04:44:08.155Z,10.58
2018-12-07T04:46:36.557Z,10.51
2018-12-07T04:49:04.958Z,10.48
2018-12-07T04:51:33.682Z,10.53
2018-12-07T04:54:02.204Z,10.44
2018-12-07T04:56:30.678Z,10.42
2018-12-07T04:58:59.084Z,10.48
2018-12-07T05:01:27.841Z,10.50
2018-12-07T05:03:56.127Z,10.48
2018-12-07T05:06:24.661Z,10.48
2018-12-07T05:08:53.035Z,10.55
2018-12-07T05:11:21.404Z,10.46
2018-12-07T05:14:11.743Z,10.43
2018-12-07T05:16:40.015Z,10.45
2018-12-07T05:19:08.665Z,10.43
2018-12-07T05:21:37.081Z,10.44
2018-12-07T05:24:05.444Z,10.43
2018-12-07T05:26:53.300Z,10.38
2018-12-07T05:29:21.584Z,10.40
2018-12-07T05:31:49.845Z,10.38
2018-12-07T05:34:18.250Z,10.42
2018-12-07T05:36:46.896Z,10.38
2018-12-07T05:39:15.255Z,10.41
2018-12-07T05:41:43.687Z,10.46
2018-12-07T05:44:12.142Z,10.37
2018-12-07T05:51:43.726Z,10.49
2018-12-07T05:54:12.110Z,10.45
2018-12-07T05:56:40.535Z,10.45
2018-12-07T05:59:08.819Z,10.48
2018-12-07T06:01:37.196Z,10.46
2018-12-07T06:04:05.502Z,10.48
2018-12-07T06:06:34.195Z,10.53
2018-12-07T06:09:23.842Z,10.54
2018-12-07T06:11:52.594Z,10.53
2018-12-07T06:14:21.013Z,10.56
2018-12-07T06:16:50.064Z,10.57
2018-12-07T06:19:18.548Z,10.60
2018-12-07T06:21:47.337Z,10.57
2018-12-07T06:24:15.764Z,10.57
2018-12-07T06:26:44.221Z,10.58
2018-12-07T06:29:12.625Z,10.60
2018-12-07T06:31:41.456Z,10.68
2018-12-07T06:34:09.934Z,10.68
2018-12-07T06:36:38.362Z,10.64
2018-12-07T06:39:09.587Z,10.66
2018-12-07T06:41:38.074Z,10.70
2018-12-07T06:44:06.322Z,10.66
2018-12-07T06:46:35.072Z,10.73
2018-12-07T06:49:22.498Z,10.70
2018-12-07T06:51:50.795Z,10.71
2018-12-07T06:54:19.071Z,10.67
2018-12-07T06:56:47.701Z,10.72
2018-12-07T06:59:15.954Z,10.70
2018-12-07T07:01:44.360Z,10.75
2018-12-07T07:04:12.808Z,10.76
2018-12-07T07:06:41.095Z,10.70
2018-12-07T07:09:09.605Z,10.73
2018-12-07T07:11:37.958Z,10.77
2018-12-07T07:14:06.237Z,10.76
2018-12-07T07:16:34.610Z,10.77
2018-12-07T07:19:03.139Z,10.76
2018-12-07T07:21:31.514Z,10.78
2018-12-07T07:23:59.904Z,10.75
2018-12-07T07:26:28.706Z,10.85
2018-12-07T07:28:57.105Z,10.84
2018-12-07T07:31:25.686Z,10.84
2018-12-07T07:33:54.450Z,10.90
2018-12-07T07:36:23.184Z,10.93
2018-12-07T07:38:51.575Z,10.90
2018-12-07T07:41:20.270Z,10.90
2018-12-07T07:43:48.670Z,10.94
2018-12-07T07:46:17.035Z,10.95
2018-12-07T07:48:45.477Z,10.96
2018-12-07T07:56:15.416Z,11.03
2018-12-07T08:03:39.089Z,11.08
2018-12-07T08:18:55.706Z,11.22
2018-12-07T08:21:24.191Z,11.29
2018-12-07T08:23:52.617Z,11.25
2018-12-07T08:26:21.175Z,11.27
2018-12-07T08:28:49.910Z,11.33
2018-12-07T08:31:19.103Z,11.37
2018-12-07T08:33:47.704Z,11.44
2018-12-07T08:36:16.082Z,11.51
2018-12-07T08:38:44.693Z,11.51
2018-12-07T08:41:13.131Z,11.51
2018-12-07T08:44:01.189Z,11.53
2018-12-07T08:46:29.762Z,11.63
2018-12-07T08:48:58.170Z,11.63
2018-12-07T08:51:26.683Z,11.67
2018-12-07T08:53:55.077Z,11.67
2018-12-07T08:56:23.969Z,11.74
2018-12-07T08:58:52.335Z,11.73
2018-12-07T09:01:20.785Z,11.75
2018-12-07T09:03:49.164Z,11.77
2018-12-07T09:06:17.704Z,11.82
2018-12-07T09:08:47.316Z,11.88
2018-12-07T09:11:15.779Z,11.84
2018-12-07T09:13:44.171Z,11.97
2018-12-07T09:16:12.783Z,12.04
2018-12-07T09:18:41.260Z,11.94
2018-12-07T09:21:09.646Z,11.94
2018-12-07T09:23:38.076Z,12.02
2018-12-07T09:26:06.456Z,11.99
2018-12-07T09:28:35.151Z,11.98
2018-12-07T09:31:22.614Z,11.98
2018-12-07T09:33:51.244Z,12.02
2018-12-07T09:36:19.625Z,12.13
2018-12-07T09:38:48.093Z,12.08
2018-12-07T09:41:16.385Z,12.13
2018-12-07T09:43:44.681Z,12.22
2018-12-07T09:46:13.139Z,12.26
2018-12-07T09:48:43.150Z,12.28
2018-12-07T09:51:11.707Z,12.30
2018-12-07T09:53:40.427Z,12.31
2018-12-07T09:56:08.820Z,12.30
2018-12-07T09:58:37.109Z,12.29
2018-12-07T10:01:05.834Z,12.42
2018-12-07T10:06:44.858Z,12.32
2018-12-07T10:09:12.005Z,12.34
2018-12-07T10:11:39.260Z,12.36
2018-12-07T10:14:06.425Z,12.38
2018-12-07T10:16:34.709Z,12.44
2018-12-07T10:19:01.926Z,12.44
2018-12-07T10:21:29.174Z,12.49
2018-12-07T10:23:56.343Z,12.50
2018-12-07T10:26:23.483Z,12.53
2018-12-07T10:28:51.664Z,12.64
2018-12-07T10:31:18.883Z,12.67
2018-12-07T10:33:46.069Z,12.63
2018-12-07T10:36:13.264Z,12.64
2018-12-07T10:38:40.444Z,12.69
2018-12-07T10:41:07.593Z,12.67
2018-12-07T10:43:34.996Z,12.72
2018-12-07T10:46:02.189Z,12.68
2018-12-07T10:48:29.354Z,12.69
2018-12-07T10:50:56.579Z,12.69
2018-12-07T10:53:23.756Z,12.63
2018-12-07T10:55:50.992Z,12.77
2018-12-07T10:58:18.241Z,12.75
2018-12-07T11:00:51.529Z,12.70
2018-12-07T11:03:25.608Z,12.71
2018-12-07T11:05:58.451Z,12.79
2018-12-07T11:08:34.949Z,12.82
2018-12-07T11:11:07.858Z,12.86
2018-12-07T11:13:40.239Z,12.95
2018-12-07T11:16:14.002Z,12.93
2018-12-07T11:18:47.262Z,12.99
2018-12-07T11:21:21.046Z,12.97
2018-12-07T11:23:53.832Z,13.01
2018-12-07T11:26:27.367Z,13.06
2018-12-07T11:29:00.313Z,13.00
2018-12-07T11:31:33.137Z,12.98
2018-12-07T11:34:11.859Z,12.82
2018-12-07T11:36:39.173Z,12.98
2018-12-07T11:39:09.023Z,12.91
2018-12-07T11:41:36.320Z,12.82
2018-12-07T11:44:03.606Z,12.69
2018-12-07T11:46:30.740Z,12.65
2018-12-07T11:48:58.095Z,12.64
2018-12-07T11:51:25.264Z,12.58
2018-12-07T11:53:52.399Z,12.58
2018-12-07T11:56:20.468Z,12.56
2018-12-07T11:58:47.632Z,12.53
2018-12-07T12:01:14.857Z,12.48
2018-12-07T12:03:42.034Z,12.49
2018-12-07T12:06:09.165Z,12.35
2018-12-07T12:08:36.883Z,12.33
2018-12-07T12:11:04.128Z,12.34
2018-12-07T12:13:31.322Z,12.32
2018-12-07T12:15:58.482Z,12.25
2018-12-07T12:18:25.719Z,12.17
2018-12-07T12:20:52.893Z,12.15
2018-12-07T12:23:20.064Z,12.20
2018-12-07T12:25:47.336Z,12.16
2018-12-07T12:28:14.503Z,12.17
2018-12-07T12:30:41.755Z,12.15
2018-12-07T12:33:08.951Z,12.12
2018-12-07T12:35:36.161Z,12.11
2018-12-07T12:38:03.296Z,12.08
2018-12-07T12:40:30.606Z,12.09
2018-12-07T12:42:57.845Z,12.11
2018-12-07T12:45:24.958Z,12.08
2018-12-07T12:47:52.243Z,12.03
2018-12-07T12:50:25.130Z,12.02
2018-12-07T12:52:52.472Z,12.01
2018-12-07T12:55:19.677Z,11.91
2018-12-07T12:57:46.816Z,11.91
2018-12-07T13:00:14.000Z,11.85
2018-12-07T13:02:41.135Z,11.81
2018-12-07T13:05:08.299Z,11.93
2018-12-07T13:07:35.524Z,11.88
2018-12-07T13:10:02.934Z,11.87
2018-12-07T13:12:30.093Z,11.83
2018-12-07T13:14:57.270Z,11.84
2018-12-07T13:17:24.460Z,11.83
2018-12-07T13:19:51.591Z,11.83
2018-12-07T13:22:18.827Z,11.82
2018-12-07T13:24:45.979Z,11.78
2018-12-07T13:27:13.148Z,11.79
2018-12-07T13:29:40.353Z,11.72
2018-12-07T13:32:07.626Z,11.71
2018-12-07T13:34:34.944Z,11.67
2018-12-07T13:37:02.180Z,11.68
2018-12-07T13:39:29.411Z,11.65
2018-12-07T13:41:56.660Z,11.66
2018-12-07T13:44:24.079Z,11.65
2018-12-07T13:47:03.484Z,11.63
2018-12-07T13:49:30.800Z,11.66
2018-12-07T13:51:58.477Z,11.66
2018-12-07T13:54:25.729Z,11.69
2018-12-07T13:56:53.176Z,11.61
2018-12-07T13:59:20.490Z,11.58
2018-12-07T14:01:47.737Z,11.63
2018-12-07T14:04:15.031Z,11.60
2018-12-07T14:06:42.473Z,11.58
2018-12-07T14:09:09.686Z,11.58
2018-12-07T14:11:37.177Z,11.55
2018-12-07T14:14:04.755Z,11.48
2018-12-07T14:16:32.140Z,11.52
2018-12-07T14:18:59.618Z,11.53
2018-12-07T14:21:26.845Z,11.48
2018-12-07T14:23:54.061Z,11.53
2018-12-07T14:26:21.329Z,11.53
2018-12-07T14:28:48.582Z,11.51
2018-12-07T14:31:15.941Z,11.46
2018-12-07T14:33:43.424Z,11.43
2018-12-07T14:36:10.707Z,11.43
2018-12-07T14:38:38.079Z,11.41
2018-12-07T14:41:05.479Z,11.44
2018-12-07T14:43:33.720Z,11.34
2018-12-07T14:46:01.124Z,11.29
2018-12-07T14:48:28.415Z,11.27
2018-12-07T14:50:55.724Z,11.21
2018-12-07T14:53:22.927Z,11.24
2018-12-07T14:55:50.213Z,11.24
2018-12-07T14:58:17.603Z,11.25
2018-12-07T15:00:45.000Z,11.20
2018-12-07T15:03:12.329Z,11.20
2018-12-07T15:05:39.704Z,11.16
2018-12-07T15:08:07.007Z,11.20
2018-12-07T15:10:36.538Z,11.22
2018-12-07T15:13:04.110Z,11.18
2018-12-07T15:15:31.761Z,11.19
2018-12-07T15:17:59.234Z,11.14
2018-12-07T15:20:26.545Z,11.17
2018-12-07T15:22:54.003Z,11.19
2018-12-07T15:25:21.422Z,11.08
2018-12-07T15:27:48.920Z,11.09
2018-12-07T15:30:16.443Z,11.06
2018-12-07T15:32:43.784Z,11.03
2018-12-07T15:35:11.233Z,11.05
2018-12-07T15:37:38.861Z,11.01
2018-12-07T15:40:08.461Z,11.04
2018-12-07T15:42:36.000Z,11.02
2018-12-07T15:45:04.626Z,11.01
2018-12-07T15:47:32.200Z,10.98
2018-12-07T15:49:59.561Z,11.03
2018-12-07T15:52:26.975Z,10.97
2018-12-07T15:54:54.357Z,11.02
2018-12-07T15:57:21.596Z,10.98
2018-12-07T15:59:48.774Z,10.97
2018-12-07T16:02:16.171Z,10.92
2018-12-07T16:04:43.791Z,10.96
2018-12-07T16:07:10.930Z,10.86
2018-12-07T16:09:38.267Z,10.87
2018-12-07T16:12:05.690Z,10.92
2018-12-07T16:14:33.007Z,10.86
2018-12-07T16:17:00.449Z,10.93
2018-12-07T16:19:28.023Z,10.90
2018-12-07T16:21:55.338Z,10.88
2018-12-07T16:24:22.795Z,10.88
2018-12-07T16:26:50.131Z,10.89
2018-12-07T16:29:17.408Z,10.85
2018-12-07T16:31:44.795Z,10.86
2018-12-07T16:34:12.120Z,10.84
2018-12-07T16:36:39.552Z,10.86
2018-12-07T16:39:07.696Z,10.83
2018-12-07T16:41:35.102Z,10.84
2018-12-07T16:44:02.454Z,10.89
2018-12-07T16:46:30.827Z,10.88
2018-12-07T16:48:58.368Z,10.81
2018-12-07T16:51:25.817Z,10.84
2018-12-07T16:53:53.794Z,10.81
2018-12-07T16:56:21.362Z,10.82
2018-12-07T16:58:48.966Z,10.78
2018-12-07T17:01:16.511Z,10.79
2018-12-07T17:03:43.978Z,10.82
2018-12-07T17:06:11.402Z,10.85
2018-12-07T17:08:38.885Z,10.81
2018-12-07T17:11:06.347Z,10.78
2018-12-07T17:13:33.595Z,10.86
2018-12-07T17:16:00.818Z,10.79
2018-12-07T17:18:28.434Z,10.83
2018-12-07T17:20:55.752Z,10.77
2018-12-07T17:23:22.948Z,10.74
2018-12-07T17:25:50.270Z,10.74
2018-12-07T17:28:18.568Z,10.85
2018-12-07T17:30:45.747Z,10.78
2018-12-07T17:33:13.097Z,10.87
2018-12-07T17:35:40.560Z,10.72
2018-12-07T17:38:08.159Z,10.72
2018-12-07T17:40:35.279Z,10.71
2018-12-07T17:43:04.682Z,10.70
2018-12-07T17:45:32.265Z,10.72
2018-12-07T17:47:59.718Z,10.71
2018-12-07T17:50:27.131Z,10.66
2018-12-07T17:52:54.570Z,10.63
2018-12-07T17:55:21.930Z,10.67
2018-12-07T17:57:50.476Z,10.57
2018-12-07T18:00:17.925Z,10.60
2018-12-07T18:02:45.118Z,10.63
2018-12-07T18:05:12.412Z,10.60
2018-12-07T18:07:39.884Z,10.62
2018-12-07T18:10:08.295Z,10.64
2018-12-07T18:12:35.719Z,10.59
2018-12-07T18:15:03.564Z,10.63
2018-12-07T18:17:30.750Z,10.55
2018-12-07T18:19:58.053Z,10.58
2018-12-07T18:22:26.258Z,10.52
2018-12-07T18:24:53.583Z,10.57
2018-12-07T18:27:20.966Z,10.59
2018-12-07T18:29:48.236Z,10.47
2018-12-07T18:32:15.451Z,10.51
2018-12-07T18:34:42.671Z,10.53
2018-12-07T18:37:10.347Z,10.50
2018-12-07T18:39:37.684Z,10.55
2018-12-07T18:42:05.144Z,10.51
2018-12-07T18:44:32.445Z,10.42
2018-12-07T18:46:59.863Z,10.47
2018-12-07T18:49:27.221Z,10.50
2018-12-07T18:51:54.654Z,10.52
2018-12-07T18:54:22.085Z,10.56
2018-12-07T18:56:49.489Z,10.47
2018-12-07T18:59:17.170Z,10.46
2018-12-07T19:01:44.568Z,10.50
2018-12-07T19:04:11.984Z,10.49
2018-12-07T19:06:39.391Z,10.50
2018-12-07T19:09:08.453Z,10.45
2018-12-07T19:11:35.766Z,10.44
2018-12-07T19:14:03.336Z,10.52
2018-12-07T19:16:30.727Z,10.52
2018-12-07T19:18:58.043Z,10.50
2018-12-07T19:21:25.261Z,10.48
2018-12-07T19:23:52.517Z,10.49
2018-12-07T19:26:19.948Z,10.47
2018-12-07T19:28:47.242Z,10.42
2018-12-07T19:31:14.651Z,10.49
2018-12-07T19:33:42.043Z,10.51
2018-12-07T19:36:09.600Z,10.48
2018-12-07T19:38:36.957Z,10.39
2018-12-07T19:41:04.125Z,10.43
2018-12-07T19:43:31.578Z,10.42
2018-12-07T19:45:58.842Z,10.44
2018-12-07T19:48:26.123Z,10.39
2018-12-07T19:50:53.673Z,10.31
2018-12-07T19:53:21.171Z,10.35
2018-12-07T19:55:48.582Z,10.39
2018-12-07T19:58:15.919Z,10.34
2018-12-07T20:00:43.534Z,10.31
2018-12-07T20:03:11.047Z,10.33
2018-12-07T20:05:38.505Z,10.28
2018-12-07T20:08:05.866Z,10.23
2018-12-07T20:10:33.769Z,10.31
2018-12-07T20:13:02.035Z,10.29
2018-12-07T20:15:29.305Z,10.22
2018-12-07T20:17:56.699Z,10.27
2018-12-07T20:20:24.272Z,10.25
2018-12-07T20:22:52.065Z,10.18
2018-12-07T20:25:19.292Z,10.18
2018-12-07T20:27:46.639Z,10.18
2018-12-07T20:30:14.019Z,10.13
2018-12-07T20:32:43.066Z,10.18
2018-12-07T20:35:10.655Z,10.08
2018-12-07T20:37:37.979Z,10.09
2018-12-07T20:40:05.586Z,10.09
2018-12-07T20:42:36.927Z,10.04
2018-12-07T20:45:04.620Z,10.09
2018-12-07T20:47:31.908Z,10.08
2018-12-07T20:49:59.645Z,9.95
2018-12-07T20:52:27.051Z,9.88
2018-12-07T20:54:54.641Z,9.85
2018-12-07T20:57:23.268Z,9.74
2018-12-07T20:59:50.773Z,9.76
2018-12-07T21:02:18.275Z,9.75
2018-12-07T21:04:45.624Z,9.67
2018-12-07T21:07:44.606Z,9.70
2018-12-07T21:10:38.483Z,9.64
2018-12-07T21:13:27.915Z,9.57
2018-12-07T21:15:55.435Z,9.62
2018-12-07T21:18:22.622Z,9.64
2018-12-07T21:20:50.090Z,9.57
2018-12-07T21:23:17.482Z,9.67
2018-12-07T21:25:44.692Z,9.61
2018-12-07T21:28:11.824Z,9.66
2018-12-07T21:30:49.033Z,9.62
2018-12-07T21:33:22.519Z,9.70
2018-12-07T21:36:07.466Z,9.72
2018-12-07T21:38:35.095Z,9.70
2018-12-07T21:41:03.169Z,9.71
2018-12-07T21:43:31.614Z,9.68
2018-12-07T21:46:00.259Z,9.70
2018-12-07T21:48:29.285Z,9.65
2018-12-07T21:51:20.223Z,9.68
2018-12-07T21:53:47.528Z,9.67
2018-12-07T21:56:14.881Z,9.65
2018-12-07T21:58:42.212Z,9.64
2018-12-07T22:01:09.482Z,9.59
2018-12-07T22:03:36.879Z,9.74
2018-12-07T22:06:04.193Z,9.61
2018-12-07T22:08:31.436Z,9.63
2018-12-07T22:10:58.876Z,9.62
2018-12-07T22:13:26.408Z,9.59
2018-12-07T22:15:53.606Z,9.64
2018-12-07T22:18:21.115Z,9.61
2018-12-07T22:20:48.651Z,9.61
2018-12-07T22:23:15.899Z,9.64
2018-12-07T22:25:43.131Z,9.62
2018-12-07T22:28:10.609Z,9.66
2018-12-07T22:30:38.234Z,9.70
2018-12-07T22:33:05.806Z,9.63
2018-12-07T22:35:33.696Z,9.60
2018-12-07T22:38:01.160Z,9.56
2018-12-07T22:40:28.501Z,9.54
2018-12-07T22:42:55.977Z,9.62
2018-12-07T22:45:23.228Z,9.61
2018-12-07T22:47:50.665Z,9.54
2018-12-07T22:50:18.069Z,9.52
2018-12-07T22:52:45.221Z,9.57
2018-12-07T22:55:12.483Z,9.51
2018-12-07T22:57:39.739Z,9.48
2018-12-07T23:00:08.219Z,9.56
2018-12-07T23:02:35.588Z,9.63
2018-12-07T23:05:03.040Z,9.52
2018-12-07T23:07:30.205Z,9.61
2018-12-07T23:09:57.375Z,9.55
2018-12-07T23:12:24.584Z,9.54
2018-12-07T23:14:51.863Z,9.56
2018-12-07T23:17:19.145Z,9.58
2018-12-07T23:19:46.359Z,9.59
2018-12-07T23:22:13.539Z,9.60
2018-12-07T23:24:40.720Z,9.56
2018-12-07T23:27:07.948Z,9.59
2018-12-07T23:29:35.122Z,9.58
2018-12-07T23:32:02.288Z,9.57
2018-12-07T23:34:29.522Z,9.59
2018-12-07T23:36:56.773Z,9.59
2018-12-07T23:39:23.949Z,9.65
2018-12-07T23:41:51.196Z,9.60
2018-12-07T23:44:18.363Z,9.59
2018-12-07T23:46:45.532Z,9.57
2018-12-07T23:49:12.762Z,9.53
2018-12-07T23:51:39.978Z,9.60
2018-12-07T23:54:07.305Z,9.60
2018-12-07T23:56:34.530Z,9.60
2018-12-07T23:59:01.659Z,9.59
